createdAt,value
2023-05-19T00:00:55.654Z,11.19
2023-05-19T00:03:22.826Z,11.40
2023-05-19T00:05:50.542Z,11.54
2023-05-19T00:08:18.438Z,11.52
2023-05-19T00:10:45.409Z,11.32
2023-05-19T00:13:12.664Z,11.59
2023-05-19T00:15:40.202Z,11.02
2023-05-19T00:18:09.041Z,11.33
2023-05-19T00:20:35.854Z,11.27
2023-05-19T00:23:02.367Z,11.23
2023-05-19T00:25:28.838Z,11.23
2023-05-19T00:27:55.360Z,11.27
2023-05-19T00:30:22.982Z,11.37
2023-05-19T00:32:49.625Z,11.10
2023-05-19T00:35:16.524Z,11.34
2023-05-19T00:37:43.163Z,11.13
2023-05-19T00:40:10.261Z,11.44
2023-05-19T00:42:36.955Z,11.43
2023-05-19T00:45:03.654Z,11.33
2023-05-19T00:47:30.281Z,11.13
2023-05-19T00:49:56.879Z,11.27
2023-05-19T00:52:23.645Z,11.22
2023-05-19T00:54:52.853Z,11.31
2023-05-19T00:57:20.870Z,11.32
2023-05-19T00:59:48.536Z,11.31
2023-05-19T01:02:15.165Z,11.37
2023-05-19T01:04:43.826Z,11.30
2023-05-19T01:07:12.473Z,11.34
2023-05-19T01:09:40.749Z,11.31
2023-05-19T01:12:08.676Z,11.31
2023-05-19T01:14:35.366Z,11.33
2023-05-19T01:17:14.313Z,11.20
2023-05-19T01:19:56.818Z,11.18
2023-05-19T01:22:48.691Z,11.20
2023-05-19T01:25:42.667Z,11.31
2023-05-19T01:28:48.346Z,11.25
2023-05-19T01:31:16.910Z,10.93
2023-05-19T01:33:44.258Z,11.04
2023-05-19T01:36:12.285Z,11.02
2023-05-19T01:38:39.995Z,11.00
2023-05-19T01:41:06.979Z,11.00
2023-05-19T01:43:35.959Z,10.96
2023-05-19T01:46:03.198Z,10.91
2023-05-19T01:48:30.533Z,10.71
2023-05-19T01:50:58.002Z,10.65
2023-05-19T01:53:25.373Z,10.58
2023-05-19T01:55:55.171Z,10.68
2023-05-19T01:58:52.461Z,10.67
2023-05-19T02:01:30.437Z,10.40
2023-05-19T02:04:26.406Z,10.20
2023-05-19T02:07:12.286Z,10.14
2023-05-19T02:09:56.869Z,10.27
2023-05-19T02:12:25.940Z,10.15
2023-05-19T02:15:06.072Z,10.13
2023-05-19T02:17:38.368Z,10.09
2023-05-19T02:20:05.991Z,9.89
2023-05-19T02:22:32.852Z,9.83
2023-05-19T02:24:59.456Z,9.69
2023-05-19T02:27:26.362Z,9.93
2023-05-19T02:29:53.279Z,9.91
2023-05-19T02:32:20.767Z,9.68
2023-05-19T02:34:47.744Z,9.55
2023-05-19T02:37:15.198Z,9.70
2023-05-19T02:39:42.781Z,9.45
2023-05-19T02:42:09.588Z,9.47
2023-05-19T02:44:36.536Z,9.30
2023-05-19T02:47:03.172Z,9.42
2023-05-19T02:49:35.885Z,9.51
2023-05-19T02:52:03.547Z,9.32
2023-05-19T02:54:30.844Z,9.36
2023-05-19T02:56:58.104Z,9.37
2023-05-19T02:59:25.727Z,9.45
2023-05-19T03:01:56.079Z,9.31
2023-05-19T03:04:22.678Z,9.19
2023-05-19T03:06:50.167Z,9.22
2023-05-19T03:09:16.735Z,9.20
2023-05-19T03:11:43.250Z,9.27
2023-05-19T03:14:09.876Z,9.33
2023-05-19T03:16:36.621Z,9.11
2023-05-19T03:19:03.391Z,8.94
2023-05-19T03:21:30.445Z,9.17
2023-05-19T03:23:57.204Z,9.15
2023-05-19T03:26:24.696Z,9.44
2023-05-19T03:28:51.231Z,9.38
2023-05-19T03:31:17.805Z,9.31
2023-05-19T03:33:44.545Z,9.27
2023-05-19T03:36:12.807Z,9.31
2023-05-19T03:38:39.733Z,9.24
2023-05-19T03:41:06.158Z,9.34
2023-05-19T03:43:32.803Z,9.27
2023-05-19T03:46:02.799Z,9.61
2023-05-19T03:48:49.702Z,9.41
2023-05-19T03:51:43.098Z,9.50
2023-05-19T03:54:32.632Z,9.56
2023-05-19T03:56:59.198Z,9.67
2023-05-19T03:59:25.875Z,9.75
2023-05-19T04:01:52.797Z,9.70
2023-05-19T04:04:19.522Z,9.57
2023-05-19T04:06:46.258Z,9.74
2023-05-19T04:09:15.835Z,9.79
2023-05-19T04:11:43.121Z,9.56
2023-05-19T04:14:09.824Z,9.91
2023-05-19T04:16:36.770Z,9.92
2023-05-19T04:19:03.357Z,9.69
2023-05-19T04:21:29.833Z,9.97
2023-05-19T04:23:59.196Z,9.92
2023-05-19T04:26:26.934Z,10.07
2023-05-19T04:28:57.831Z,10.14
2023-05-19T04:31:24.546Z,10.03
2023-05-19T04:33:53.478Z,9.86
2023-05-19T04:36:21.761Z,9.97
2023-05-19T04:38:54.851Z,9.90
2023-05-19T04:41:23.461Z,10.13
2023-05-19T04:43:50.083Z,10.14
2023-05-19T04:46:18.272Z,10.22
2023-05-19T04:48:45.216Z,10.23
2023-05-19T04:51:14.174Z,10.31
2023-05-19T04:53:41.775Z,10.21
2023-05-19T04:56:13.624Z,10.35
2023-05-19T04:58:41.978Z,10.63
2023-05-19T05:01:09.620Z,10.62
2023-05-19T05:03:37.062Z,10.60
2023-05-19T05:06:04.573Z,10.73
2023-05-19T05:08:31.160Z,10.63
2023-05-19T05:10:58.726Z,10.51
2023-05-19T05:13:26.303Z,10.74
2023-05-19T05:15:54.196Z,10.96
2023-05-19T05:18:21.297Z,10.87
2023-05-19T05:20:48.350Z,11.03
2023-05-19T05:23:16.694Z,11.11
2023-05-19T05:25:47.325Z,10.93
2023-05-19T05:28:15.599Z,10.90
2023-05-19T05:30:43.692Z,11.01
2023-05-19T05:33:10.745Z,11.14
2023-05-19T05:35:39.459Z,11.33
2023-05-19T05:38:08.099Z,11.52
2023-05-19T05:40:36.182Z,11.59
2023-05-19T05:43:03.961Z,11.67
2023-05-19T05:45:34.311Z,11.87
2023-05-19T05:48:01.654Z,11.79
2023-05-19T05:50:29.802Z,11.89
2023-05-19T05:52:58.040Z,11.70
2023-05-19T05:55:26.586Z,11.86
2023-05-19T05:57:53.215Z,11.74
2023-05-19T06:00:21.297Z,11.77
2023-05-19T06:02:52.091Z,11.95
2023-05-19T06:05:19.673Z,11.57
2023-05-19T06:07:47.572Z,12.06
2023-05-19T06:10:19.469Z,12.04
2023-05-19T06:12:46.948Z,11.82
2023-05-19T06:15:13.465Z,11.79
2023-05-19T06:17:49.948Z,11.84
2023-05-19T06:20:18.069Z,11.83
2023-05-19T06:22:44.692Z,11.83
2023-05-19T06:25:11.734Z,11.94
2023-05-19T06:27:38.255Z,11.89
2023-05-19T06:30:04.916Z,11.83
2023-05-19T06:32:36.897Z,11.99
2023-05-19T06:35:03.513Z,12.42
2023-05-19T06:37:30.122Z,11.84
2023-05-19T06:39:57.105Z,12.05
2023-05-19T06:42:25.241Z,12.45
2023-05-19T06:45:06.957Z,11.91
2023-05-19T06:47:33.555Z,12.16
2023-05-19T06:50:00.371Z,12.22
2023-05-19T06:52:30.921Z,12.23
2023-05-19T06:54:57.781Z,12.51
2023-05-19T06:57:24.270Z,12.13
2023-05-19T06:59:51.015Z,12.92
2023-05-19T07:02:18.006Z,13.24
2023-05-19T07:04:44.466Z,13.70
2023-05-19T07:07:15.177Z,13.66
2023-05-19T07:09:42.537Z,13.50
2023-05-19T07:12:09.176Z,13.33
2023-05-19T07:14:36.519Z,13.99
2023-05-19T07:17:03.378Z,13.51
2023-05-19T07:19:30.046Z,13.07
2023-05-19T07:21:57.121Z,13.26
2023-05-19T07:24:24.884Z,13.44
2023-05-19T07:26:51.451Z,13.34
2023-05-19T07:29:17.888Z,13.79
2023-05-19T07:31:44.494Z,13.62
2023-05-19T07:34:11.310Z,13.45
2023-05-19T07:36:37.870Z,13.78
2023-05-19T07:39:04.367Z,14.07
2023-05-19T07:41:30.977Z,13.46
2023-05-19T07:43:57.423Z,14.11
2023-05-19T07:46:23.957Z,14.68
2023-05-19T07:48:50.585Z,14.93
2023-05-19T07:51:17.267Z,14.83
2023-05-19T07:53:43.858Z,14.98
2023-05-19T07:56:10.534Z,15.45
2023-05-19T07:58:37.236Z,15.17
2023-05-19T08:01:04.033Z,15.30
2023-05-19T08:03:31.007Z,15.35
2023-05-19T08:05:57.768Z,14.74
2023-05-19T08:08:24.268Z,14.55
2023-05-19T08:10:50.758Z,13.72
2023-05-19T08:13:17.293Z,14.20
2023-05-19T08:15:43.941Z,14.24
2023-05-19T08:18:10.623Z,14.14
2023-05-19T08:20:37.601Z,14.07
2023-05-19T08:23:04.117Z,14.29
2023-05-19T08:25:30.613Z,13.96
2023-05-19T08:27:57.149Z,13.93
2023-05-19T08:30:23.852Z,13.40
2023-05-19T08:32:50.434Z,13.90
2023-05-19T08:35:16.952Z,14.00
2023-05-19T08:37:43.494Z,14.20
2023-05-19T08:40:16.167Z,14.23
2023-05-19T08:42:43.034Z,13.98
2023-05-19T08:45:09.964Z,14.10
2023-05-19T08:47:36.876Z,13.76
2023-05-19T08:50:10.727Z,14.07
2023-05-19T08:52:53.251Z,13.86
2023-05-19T08:55:35.473Z,13.88
2023-05-19T08:58:04.400Z,13.63
2023-05-19T09:00:31.222Z,13.91
2023-05-19T09:03:10.832Z,13.84
2023-05-19T09:05:46.397Z,13.96
2023-05-19T09:08:13.353Z,14.05
2023-05-19T09:10:40.096Z,13.77
2023-05-19T09:13:06.869Z,13.99
2023-05-19T09:15:36.704Z,14.17
2023-05-19T09:18:10.814Z,14.41
2023-05-19T09:20:40.044Z,14.19
2023-05-19T09:23:06.662Z,14.73
2023-05-19T09:25:33.517Z,14.86
2023-05-19T09:28:00.493Z,15.18
2023-05-19T09:30:27.073Z,15.42
2023-05-19T09:32:53.884Z,15.31
2023-05-19T09:35:21.584Z,15.21
2023-05-19T09:37:48.302Z,15.56
2023-05-19T09:40:15.755Z,15.41
2023-05-19T09:42:43.994Z,15.38
2023-05-19T09:45:11.338Z,15.84
2023-05-19T09:47:39.687Z,15.41
2023-05-19T09:50:08.845Z,15.14
2023-05-19T09:52:37.172Z,14.96
2023-05-19T09:55:05.648Z,14.59
2023-05-19T09:57:37.235Z,14.10
2023-05-19T10:00:11.857Z,13.94
2023-05-19T10:02:42.921Z,14.60
2023-05-19T10:05:17.564Z,14.73
2023-05-19T10:07:45.767Z,15.14
2023-05-19T10:10:13.915Z,15.21
2023-05-19T10:12:41.634Z,15.24
2023-05-19T10:15:12.987Z,15.11
2023-05-19T10:17:41.369Z,15.29
2023-05-19T10:20:10.915Z,15.17
2023-05-19T10:22:38.198Z,15.40
2023-05-19T10:25:05.866Z,14.98
2023-05-19T10:27:36.719Z,15.86
2023-05-19T10:30:16.307Z,15.85
2023-05-19T10:32:46.612Z,14.76
2023-05-19T10:35:41.030Z,14.95
2023-05-19T10:38:10.537Z,15.69
2023-05-19T10:40:43.761Z,15.92
2023-05-19T10:43:25.494Z,15.90
2023-05-19T10:45:53.921Z,16.27
2023-05-19T10:48:22.090Z,16.64
2023-05-19T10:50:52.868Z,16.98
2023-05-19T10:53:22.073Z,17.20
2023-05-19T10:55:59.140Z,17.11
2023-05-19T10:58:43.948Z,16.48
2023-05-19T11:01:16.475Z,16.83
2023-05-19T11:03:53.929Z,16.82
2023-05-19T11:06:25.321Z,16.49
2023-05-19T11:09:15.431Z,16.31
2023-05-19T11:11:49.659Z,16.18
2023-05-19T11:14:19.434Z,16.41
2023-05-19T11:16:51.338Z,15.95
2023-05-19T11:19:20.066Z,16.80
2023-05-19T11:21:52.447Z,16.76
2023-05-19T11:24:44.518Z,17.16
2023-05-19T11:27:33.440Z,16.41
2023-05-19T11:30:11.440Z,17.40
2023-05-19T11:32:42.774Z,17.37
2023-05-19T11:35:10.165Z,16.70
2023-05-19T11:37:37.132Z,17.13
2023-05-19T11:40:06.874Z,17.12
2023-05-19T11:42:35.297Z,17.18
2023-05-19T11:45:02.292Z,17.53
2023-05-19T11:47:28.961Z,16.87
2023-05-19T11:49:58.923Z,16.84
2023-05-19T11:52:27.492Z,17.23
2023-05-19T11:54:54.028Z,17.35
2023-05-19T11:57:20.983Z,17.29
2023-05-19T11:59:49.690Z,17.70
2023-05-19T12:02:21.534Z,17.82
2023-05-19T12:04:52.092Z,17.22
2023-05-19T12:07:20.630Z,17.00
2023-05-19T12:09:47.422Z,16.92
2023-05-19T12:12:19.061Z,17.49
2023-05-19T12:14:47.279Z,17.58
2023-05-19T12:17:21.166Z,17.02
2023-05-19T12:19:49.037Z,16.67
2023-05-19T12:22:17.696Z,17.18
2023-05-19T12:24:45.157Z,17.44
2023-05-19T12:27:19.624Z,17.85
2023-05-19T12:30:00.060Z,17.82
2023-05-19T12:32:28.970Z,17.58
2023-05-19T12:34:56.436Z,17.85
2023-05-19T12:37:27.599Z,17.44
2023-05-19T12:39:56.229Z,18.39
2023-05-19T12:42:23.467Z,18.75
2023-05-19T12:44:52.676Z,19.59
2023-05-19T12:47:20.197Z,19.38
2023-05-19T12:49:56.931Z,19.96
2023-05-19T12:52:23.994Z,19.91
2023-05-19T12:54:57.773Z,19.40
2023-05-19T12:57:26.104Z,18.10
2023-05-19T12:59:53.213Z,18.31
2023-05-19T13:02:21.001Z,18.45
2023-05-19T13:04:48.507Z,18.38
2023-05-19T13:07:14.995Z,17.40
2023-05-19T13:09:42.216Z,17.51
2023-05-19T13:12:08.951Z,17.63
2023-05-19T13:14:35.483Z,17.19
2023-05-19T13:17:02.060Z,17.45
2023-05-19T13:19:29.108Z,17.21
2023-05-19T13:21:55.613Z,17.44
2023-05-19T13:24:22.073Z,17.73
2023-05-19T13:26:48.824Z,18.31
2023-05-19T13:29:15.410Z,18.25
2023-05-19T13:31:42.104Z,18.35
2023-05-19T13:34:08.807Z,18.42
2023-05-19T13:36:36.570Z,18.21
2023-05-19T13:39:03.484Z,18.53
2023-05-19T13:41:30.047Z,18.20
2023-05-19T13:43:59.617Z,18.10
2023-05-19T13:46:33.096Z,18.10
2023-05-19T13:49:10.351Z,18.01
2023-05-19T13:51:37.579Z,18.36
2023-05-19T13:54:05.030Z,18.01
2023-05-19T13:56:31.841Z,18.46
2023-05-19T13:58:58.406Z,18.54
2023-05-19T14:01:24.880Z,18.95
2023-05-19T14:03:51.808Z,18.30
2023-05-19T14:06:18.403Z,18.51
2023-05-19T14:08:45.510Z,18.51
2023-05-19T14:11:21.830Z,18.72
2023-05-19T14:13:52.884Z,18.68
2023-05-19T14:16:21.953Z,17.95
2023-05-19T14:18:48.988Z,18.10
2023-05-19T14:21:15.708Z,17.65
2023-05-19T14:23:42.219Z,17.75
2023-05-19T14:26:08.631Z,18.22
2023-05-19T14:28:35.268Z,18.26
2023-05-19T14:31:01.854Z,18.21
2023-05-19T14:33:29.761Z,18.34
2023-05-19T14:36:01.996Z,18.44
2023-05-19T14:38:29.459Z,18.45
2023-05-19T14:40:56.522Z,18.27
2023-05-19T14:43:23.233Z,18.52
2023-05-19T14:45:50.154Z,18.44
2023-05-19T14:48:17.448Z,18.63
2023-05-19T14:50:44.356Z,18.68
2023-05-19T14:53:11.198Z,18.71
2023-05-19T14:55:37.736Z,18.83
2023-05-19T14:58:12.909Z,19.20
2023-05-19T15:00:48.005Z,19.44
2023-05-19T15:03:14.590Z,19.11
2023-05-19T15:05:41.172Z,19.16
2023-05-19T15:08:07.613Z,19.21
2023-05-19T15:10:34.331Z,19.13
2023-05-19T15:13:01.712Z,18.98
2023-05-19T15:15:28.352Z,18.53
2023-05-19T15:17:55.007Z,18.50
2023-05-19T15:20:21.630Z,18.92
2023-05-19T15:22:48.832Z,19.45
2023-05-19T15:25:15.475Z,19.54
2023-05-19T15:27:42.191Z,19.61
2023-05-19T15:30:09.174Z,19.38
2023-05-19T15:32:35.751Z,18.60
2023-05-19T15:35:02.451Z,18.97
2023-05-19T15:37:29.026Z,18.18
2023-05-19T15:39:55.479Z,17.96
2023-05-19T15:42:22.031Z,18.04
2023-05-19T15:44:48.452Z,17.96
2023-05-19T15:47:14.977Z,17.40
2023-05-19T15:49:41.445Z,18.14
2023-05-19T15:52:07.961Z,18.42
2023-05-19T15:54:34.458Z,18.43
2023-05-19T15:57:01.048Z,18.47
2023-05-19T15:59:27.676Z,18.60
2023-05-19T16:01:54.169Z,18.55
2023-05-19T16:04:20.967Z,18.43
2023-05-19T16:06:47.591Z,18.27
2023-05-19T16:09:14.107Z,18.13
2023-05-19T16:11:40.760Z,17.70
2023-05-19T16:14:07.268Z,17.98
2023-05-19T16:16:33.820Z,18.19
2023-05-19T16:19:00.400Z,17.86
2023-05-19T16:21:27.431Z,17.86
2023-05-19T16:23:53.857Z,17.98
2023-05-19T16:26:21.561Z,17.90
2023-05-19T16:28:48.087Z,17.58
2023-05-19T16:31:14.526Z,17.57
2023-05-19T16:33:41.324Z,17.42
2023-05-19T16:36:07.896Z,17.74
2023-05-19T16:38:34.410Z,17.54
2023-05-19T16:41:01.009Z,17.56
2023-05-19T16:43:27.441Z,18.01
2023-05-19T16:45:53.971Z,17.92
2023-05-19T16:48:20.641Z,17.41
2023-05-19T16:50:50.373Z,17.33
2023-05-19T16:53:17.293Z,17.62
2023-05-19T16:55:43.825Z,17.44
2023-05-19T16:59:50.621Z,17.56
2023-05-19T17:02:17.093Z,17.51
2023-05-19T17:04:43.686Z,17.28
2023-05-19T17:07:15.691Z,17.46
2023-05-19T17:09:43.115Z,17.01
2023-05-19T17:12:09.827Z,17.00
2023-05-19T17:14:36.621Z,17.07
2023-05-19T17:17:03.370Z,17.04
2023-05-19T17:19:30.023Z,17.29
2023-05-19T17:21:56.695Z,17.07
2023-05-19T17:24:23.227Z,16.99
2023-05-19T17:26:49.792Z,17.18
2023-05-19T17:29:16.308Z,17.10
2023-05-19T17:31:42.970Z,17.16
2023-05-19T17:34:09.639Z,17.16
2023-05-19T17:36:36.163Z,17.11
2023-05-19T17:39:02.651Z,16.70
2023-05-19T17:41:29.255Z,16.70
2023-05-19T17:43:55.825Z,16.94
2023-05-19T17:46:22.342Z,16.66
2023-05-19T17:48:48.921Z,16.65
2023-05-19T17:51:15.442Z,16.67
2023-05-19T17:53:42.485Z,16.71
2023-05-19T17:56:12.001Z,16.89
2023-05-19T17:58:38.923Z,16.51
2023-05-19T18:01:05.938Z,16.30
2023-05-19T18:03:32.988Z,16.30
2023-05-19T18:05:59.783Z,16.27
2023-05-19T18:08:27.762Z,16.30
2023-05-19T18:10:55.851Z,16.21
2023-05-19T18:13:23.576Z,16.24
2023-05-19T18:15:50.620Z,16.31
2023-05-19T18:18:17.233Z,16.07
2023-05-19T18:20:45.643Z,16.17
2023-05-19T18:23:12.205Z,16.22
2023-05-19T18:25:38.725Z,16.12
2023-05-19T18:28:05.348Z,16.04
2023-05-19T18:30:32.157Z,16.01
2023-05-19T18:33:02.082Z,15.88
2023-05-19T18:35:28.886Z,15.94
2023-05-19T18:37:56.622Z,15.87
2023-05-19T18:40:23.383Z,15.86
2023-05-19T18:42:50.556Z,15.95
2023-05-19T18:45:17.180Z,15.80
2023-05-19T18:47:43.679Z,15.53
2023-05-19T18:50:10.493Z,15.59
2023-05-19T18:52:37.012Z,15.61
2023-05-19T18:55:03.808Z,15.51
2023-05-19T18:57:30.421Z,15.38
2023-05-19T18:59:56.993Z,15.54
2023-05-19T19:02:23.585Z,15.41
2023-05-19T19:04:50.269Z,15.28
2023-05-19T19:07:16.880Z,15.30
2023-05-19T19:09:43.815Z,15.31
2023-05-19T19:12:10.807Z,15.36
2023-05-19T19:14:37.434Z,15.12
2023-05-19T19:17:04.028Z,15.11
2023-05-19T19:19:30.895Z,15.14
2023-05-19T19:21:57.707Z,15.00
2023-05-19T19:24:26.415Z,15.05
2023-05-19T19:26:53.042Z,14.97
2023-05-19T19:29:21.790Z,14.87
2023-05-19T19:31:48.580Z,14.81
2023-05-19T19:34:19.846Z,14.58
2023-05-19T19:36:47.808Z,14.68
2023-05-19T19:39:14.524Z,14.80
2023-05-19T19:41:41.118Z,14.80
2023-05-19T19:44:09.338Z,14.54
2023-05-19T19:46:35.944Z,14.47
2023-05-19T19:49:03.047Z,14.52
2023-05-19T19:51:29.747Z,14.57
2023-05-19T19:53:56.695Z,14.49
2023-05-19T19:56:24.749Z,14.73
2023-05-19T19:58:51.664Z,14.56
2023-05-19T20:01:20.658Z,14.35
2023-05-19T20:03:48.020Z,14.24
2023-05-19T20:06:14.810Z,14.49
2023-05-19T20:08:41.518Z,14.19
2023-05-19T20:11:08.303Z,14.30
2023-05-19T20:13:34.938Z,14.13
2023-05-19T20:16:02.136Z,14.13
2023-05-19T20:18:29.885Z,14.27
2023-05-19T20:20:56.817Z,14.19
2023-05-19T20:23:23.372Z,14.05
2023-05-19T20:26:06.695Z,14.03
2023-05-19T20:28:36.412Z,14.05
2023-05-19T20:31:02.880Z,14.24
2023-05-19T20:33:29.589Z,14.08
2023-05-19T20:35:56.133Z,14.00
2023-05-19T20:38:22.655Z,13.95
2023-05-19T20:40:49.388Z,13.83
2023-05-19T20:43:16.153Z,13.80
2023-05-19T20:45:44.174Z,13.77
2023-05-19T20:48:11.351Z,13.73
2023-05-19T20:50:39.223Z,13.58
2023-05-19T20:53:07.370Z,13.85
2023-05-19T20:55:36.124Z,13.67
2023-05-19T20:58:02.795Z,13.84
2023-05-19T21:00:30.522Z,13.70
2023-05-19T21:02:57.911Z,13.62
2023-05-19T21:05:24.884Z,13.77
2023-05-19T21:07:51.591Z,13.65
2023-05-19T21:10:18.387Z,13.60
2023-05-19T21:12:45.708Z,13.55
2023-05-19T21:15:12.841Z,13.79
2023-05-19T21:17:39.416Z,13.55
2023-05-19T21:20:06.248Z,13.62
2023-05-19T21:22:32.787Z,13.46
2023-05-19T21:24:59.332Z,13.35
2023-05-19T21:27:25.966Z,13.27
2023-05-19T21:29:55.497Z,13.25
2023-05-19T21:32:22.146Z,13.27
2023-05-19T21:34:48.883Z,13.21
2023-05-19T21:37:17.283Z,13.11
2023-05-19T21:39:44.282Z,13.08
2023-05-19T21:42:10.927Z,13.28
2023-05-19T21:44:37.603Z,13.30
2023-05-19T21:47:04.229Z,13.15
2023-05-19T21:49:31.304Z,13.17
2023-05-19T21:51:58.468Z,13.08
2023-05-19T21:54:25.159Z,13.02
2023-05-19T21:56:51.824Z,13.03
2023-05-19T21:59:18.412Z,12.94
2023-05-19T22:17:32.873Z,12.35
2023-05-19T22:19:59.390Z,12.49
2023-05-19T22:22:26.205Z,12.58
2023-05-19T22:24:52.770Z,12.75
2023-05-19T22:27:19.254Z,12.81
2023-05-19T22:29:45.873Z,12.68
2023-05-19T22:32:14.029Z,12.95
2023-05-19T22:34:40.764Z,12.83
2023-05-19T22:37:07.395Z,12.93
2023-05-19T22:39:33.934Z,12.95
2023-05-19T22:42:00.529Z,13.04
2023-05-19T22:44:27.620Z,13.09
2023-05-19T22:46:54.098Z,13.11
2023-05-19T22:49:22.869Z,13.15
2023-05-19T22:51:50.065Z,13.14
2023-05-19T22:54:16.729Z,13.16
2023-05-19T22:56:46.375Z,13.24
2023-05-19T22:59:13.156Z,13.24
2023-05-19T23:01:39.822Z,13.37
2023-05-19T23:04:06.568Z,13.25
2023-05-19T23:06:33.183Z,13.24
2023-05-19T23:09:01.013Z,13.18
2023-05-19T23:11:27.703Z,13.27
2023-05-19T23:13:54.294Z,13.23
2023-05-19T23:16:20.991Z,13.29
2023-05-19T23:18:47.624Z,13.35
2023-05-19T23:21:14.267Z,13.31
2023-05-19T23:23:52.148Z,13.38
2023-05-19T23:26:18.730Z,13.43
2023-05-19T23:28:45.266Z,13.37
2023-05-19T23:31:11.930Z,13.39
2023-05-19T23:33:38.602Z,13.32
2023-05-19T23:36:07.612Z,13.24
2023-05-19T23:38:35.003Z,13.47
2023-05-19T23:41:02.306Z,13.29
2023-05-19T23:43:28.993Z,13.18
2023-05-19T23:45:55.650Z,13.07
2023-05-19T23:48:22.205Z,13.28
2023-05-19T23:50:48.865Z,13.12
2023-05-19T23:53:15.635Z,13.06
2023-05-19T23:55:42.355Z,12.97
2023-05-19T23:58:09.028Z,12.97
